createdAt,value
2023-04-13T00:01:11.085Z,5.52
2023-04-13T00:06:15.327Z,5.69
2023-04-13T00:11:18.100Z,5.41
2023-04-13T00:16:21.203Z,5.57
2023-04-13T00:21:25.808Z,5.64
2023-04-13T00:26:28.832Z,5.58
2023-04-13T00:31:31.660Z,5.20
2023-04-13T00:36:35.822Z,5.48
2023-04-13T00:41:38.566Z,5.65
2023-04-13T00:46:42.588Z,5.42
2023-04-13T00:51:47.791Z,5.57
2023-04-13T00:56:54.233Z,5.42
2023-04-13T01:01:57.388Z,5.52
2023-04-13T01:07:09.216Z,5.53
2023-04-13T01:12:18.324Z,5.46
2023-04-13T01:17:25.626Z,5.42
2023-04-13T01:22:33.912Z,5.36
2023-04-13T01:27:46.891Z,5.27
2023-04-13T01:32:51.317Z,5.38
2023-04-13T01:37:54.781Z,5.43
2023-04-13T01:43:02.356Z,5.35
2023-04-13T01:48:18.247Z,5.38
2023-04-13T01:53:53.529Z,5.46
2023-04-13T01:58:59.962Z,5.58
2023-04-13T02:04:05.302Z,5.58
2023-04-13T02:09:09.141Z,5.54
2023-04-13T02:14:13.474Z,5.56
2023-04-13T02:19:17.097Z,5.72
2023-04-13T02:24:19.854Z,5.70
2023-04-13T02:29:24.051Z,5.86
2023-04-13T02:34:27.454Z,5.78
2023-04-13T02:39:30.814Z,5.54
2023-04-13T02:44:36.319Z,5.26
2023-04-13T02:49:39.263Z,5.53
2023-04-13T02:54:54.535Z,5.57
2023-04-13T03:00:02.027Z,5.73
2023-04-13T03:05:17.468Z,5.84
2023-04-13T03:10:21.809Z,5.80
2023-04-13T03:15:26.274Z,5.75
2023-04-13T03:20:29.875Z,5.83
2023-04-13T03:25:36.148Z,5.66
2023-04-13T03:30:41.608Z,5.82
2023-04-13T03:35:44.619Z,6.04
2023-04-13T03:40:56.981Z,6.02
2023-04-13T03:46:03.492Z,6.04
2023-04-13T03:51:08.070Z,6.12
2023-04-13T03:56:23.339Z,6.21
2023-04-13T04:01:28.327Z,6.34
2023-04-13T04:06:32.172Z,6.26
2023-04-13T04:11:55.293Z,6.44
2023-04-13T04:17:10.175Z,6.34
2023-04-13T04:22:14.040Z,6.27
2023-04-13T04:27:18.364Z,6.36
2023-04-13T04:32:25.332Z,6.26
2023-04-13T04:37:30.227Z,6.46
2023-04-13T04:42:38.763Z,6.53
2023-04-13T04:47:50.453Z,6.33
2023-04-13T04:52:57.136Z,6.56
2023-04-13T04:58:02.503Z,6.50
2023-04-13T05:03:08.957Z,6.57
2023-04-13T05:08:15.721Z,6.80
2023-04-13T05:13:22.894Z,6.52
2023-04-13T05:18:50.511Z,6.16
2023-04-13T05:24:08.767Z,6.21
2023-04-13T05:29:12.697Z,6.17
2023-04-13T05:34:20.227Z,6.33
2023-04-13T05:39:37.911Z,5.81
2023-04-13T05:44:41.580Z,6.08
2023-04-13T05:49:46.198Z,6.09
2023-04-13T05:54:50.561Z,6.36
2023-04-13T05:59:56.654Z,6.39
2023-04-13T06:05:18.433Z,6.25
2023-04-13T06:10:21.338Z,6.25
2023-04-13T06:15:24.819Z,6.44
2023-04-13T06:20:29.122Z,6.37
2023-04-13T06:25:32.951Z,6.56
2023-04-13T06:30:37.258Z,6.48
2023-04-13T06:35:45.913Z,6.05
2023-04-13T06:40:49.603Z,6.52
2023-04-13T06:45:59.360Z,6.35
2023-04-13T06:51:07.416Z,6.51
2023-04-13T06:56:12.075Z,6.34
2023-04-13T07:01:16.289Z,6.17
2023-04-13T07:06:22.370Z,6.43
2023-04-13T07:11:27.581Z,6.76
2023-04-13T07:16:30.661Z,6.42
2023-04-13T07:21:35.105Z,6.42
2023-04-13T07:26:40.983Z,6.57
2023-04-13T07:31:44.528Z,6.37
2023-04-13T07:36:49.277Z,6.76
2023-04-13T07:41:56.503Z,6.33
2023-04-13T07:47:14.272Z,6.08
2023-04-13T07:52:21.418Z,5.71
2023-04-13T07:57:25.661Z,5.52
2023-04-13T08:02:34.348Z,5.18
2023-04-13T08:07:39.096Z,5.47
2023-04-13T08:12:43.313Z,5.48
2023-04-13T08:17:48.894Z,6.54
2023-04-13T08:22:54.692Z,7.18
2023-04-13T08:27:57.745Z,7.67
2023-04-13T08:33:01.011Z,9.30
2023-04-13T08:38:07.058Z,8.96
2023-04-13T08:43:10.185Z,9.02
2023-04-13T08:48:15.192Z,8.80
2023-04-13T08:53:21.377Z,8.13
2023-04-13T08:58:27.806Z,8.07
2023-04-13T09:03:36.125Z,8.58
2023-04-13T09:08:44.818Z,9.34
2023-04-13T09:13:50.340Z,10.01
2023-04-13T09:18:55.540Z,9.86
2023-04-13T09:24:00.701Z,10.56
2023-04-13T09:29:05.310Z,10.02
2023-04-13T09:34:09.002Z,10.42
2023-04-13T09:39:14.477Z,9.55
2023-04-13T09:44:20.377Z,9.47
2023-04-13T09:49:24.147Z,10.11
2023-04-13T09:54:28.816Z,10.35
2023-04-13T09:59:33.303Z,9.34
2023-04-13T10:04:36.834Z,9.50
2023-04-13T10:09:42.077Z,9.36
2023-04-13T10:14:48.739Z,8.44
2023-04-13T10:19:54.316Z,8.72
2023-04-13T10:24:58.811Z,9.33
2023-04-13T10:30:04.053Z,9.78
2023-04-13T10:35:11.086Z,9.22
2023-04-13T10:40:16.324Z,8.56
2023-04-13T10:45:21.325Z,7.92
2023-04-13T10:50:27.466Z,8.53
2023-04-13T10:55:32.274Z,8.82
2023-04-13T11:00:44.726Z,8.82
2023-04-13T11:05:58.559Z,9.09
2023-04-13T11:11:02.486Z,9.88
2023-04-13T11:16:06.607Z,9.70
2023-04-13T11:21:15.543Z,10.57
2023-04-13T11:26:19.776Z,10.40
2023-04-13T11:31:22.548Z,12.44
2023-04-13T11:36:26.528Z,11.58
2023-04-13T11:41:32.858Z,11.18
2023-04-13T11:46:35.785Z,10.99
2023-04-13T11:51:38.955Z,10.48
2023-04-13T11:56:43.217Z,9.21
2023-04-13T12:01:53.194Z,9.04
2023-04-13T12:07:11.562Z,9.00
2023-04-13T12:17:39.076Z,10.34
2023-04-13T12:27:54.694Z,10.53
2023-04-13T12:32:57.660Z,9.75
2023-04-13T12:38:00.498Z,10.41
2023-04-13T12:43:04.618Z,11.75
2023-04-13T12:48:09.117Z,13.11
2023-04-13T12:53:12.063Z,10.87
2023-04-13T12:58:16.526Z,10.86
2023-04-13T13:03:19.384Z,10.04
2023-04-13T13:08:22.323Z,9.88
2023-04-13T13:13:26.614Z,8.91
2023-04-13T13:18:39.062Z,8.93
2023-04-13T13:23:49.735Z,8.88
2023-04-13T13:28:53.898Z,10.15
2023-04-13T13:33:56.745Z,11.95
2023-04-13T13:39:00.534Z,12.37
2023-04-13T13:44:04.853Z,13.53
2023-04-13T13:49:07.631Z,13.35
2023-04-13T13:54:30.783Z,12.99
2023-04-13T13:59:34.981Z,12.96
2023-04-13T14:04:38.024Z,12.88
2023-04-13T14:09:40.890Z,11.69
2023-04-13T14:14:45.197Z,11.81
2023-04-13T14:19:47.970Z,11.01
2023-04-13T14:24:51.905Z,12.05
2023-04-13T14:29:56.293Z,11.48
2023-04-13T14:35:00.685Z,10.87
2023-04-13T14:40:08.777Z,10.76
2023-04-13T14:45:13.455Z,11.43
2023-04-13T14:50:16.477Z,11.09
2023-04-13T14:55:19.761Z,11.10
2023-04-13T15:00:38.456Z,11.41
2023-04-13T15:05:42.099Z,10.88
2023-04-13T15:10:44.892Z,11.28
2023-04-13T15:15:49.985Z,10.59
2023-04-13T15:20:52.743Z,10.59
2023-04-13T15:25:55.851Z,11.09
2023-04-13T15:31:00.138Z,11.31
2023-04-13T15:36:03.321Z,11.51
2023-04-13T15:41:09.694Z,11.28
2023-04-13T15:46:13.911Z,12.03
2023-04-13T15:51:16.820Z,13.03
2023-04-13T15:56:19.578Z,13.02
2023-04-13T16:01:23.850Z,12.41
2023-04-13T16:06:27.496Z,13.78
2023-04-13T16:11:31.787Z,13.18
2023-04-13T16:16:44.239Z,13.47
2023-04-13T16:21:50.833Z,12.64
2023-04-13T16:26:53.663Z,12.88
2023-04-13T16:31:58.004Z,12.81
2023-04-13T16:37:00.843Z,13.97
2023-04-13T16:42:04.271Z,13.42
2023-04-13T16:47:08.507Z,13.43
2023-04-13T16:52:11.345Z,12.85
2023-04-13T16:57:14.143Z,11.83
2023-04-13T17:02:30.256Z,12.03
2023-04-13T17:07:34.146Z,12.11
2023-04-13T17:12:37.387Z,12.14
2023-04-13T17:17:41.854Z,12.70
2023-04-13T17:22:45.276Z,12.51
2023-04-13T17:27:48.098Z,12.74
2023-04-13T17:32:52.582Z,12.63
2023-04-13T17:37:55.479Z,12.17
2023-04-13T17:42:58.284Z,12.09
2023-04-13T17:48:02.658Z,11.76
2023-04-13T17:53:05.551Z,11.44
2023-04-13T17:58:10.615Z,11.34
2023-04-13T18:03:14.978Z,11.21
2023-04-13T18:08:17.905Z,11.05
2023-04-13T18:13:20.897Z,10.84
2023-04-13T18:18:25.138Z,10.69
2023-04-13T18:23:27.923Z,10.51
2023-04-13T18:28:30.907Z,10.33
2023-04-13T18:47:09.085Z,9.89
2023-04-13T18:52:11.782Z,9.78
2023-04-13T18:57:14.385Z,9.68
2023-04-13T19:02:18.596Z,9.60
2023-04-13T19:07:21.356Z,9.55
2023-04-13T19:12:23.877Z,9.50
2023-04-13T19:17:28.209Z,9.45
2023-04-13T19:22:31.295Z,9.41
2023-04-13T19:27:34.114Z,9.31
2023-04-13T19:32:38.711Z,9.23
2023-04-13T19:37:41.997Z,9.14
2023-04-13T19:42:47.008Z,9.13
2023-04-13T19:47:51.853Z,9.06
2023-04-13T19:52:54.868Z,8.95
2023-04-13T19:57:57.692Z,8.87
2023-04-13T20:03:04.131Z,8.86
2023-04-13T20:08:07.280Z,8.80
2023-04-13T20:13:10.315Z,8.72
2023-04-13T20:18:14.679Z,8.61
2023-04-13T20:23:17.538Z,8.50
2023-04-13T20:28:21.475Z,8.36
2023-04-13T20:33:25.705Z,8.14
2023-04-13T20:38:29.959Z,8.08
2023-04-13T20:43:33.266Z,8.17
2023-04-13T20:53:45.055Z,8.13
2023-04-13T20:58:48.399Z,8.13
2023-04-13T21:03:53.452Z,8.08
2023-04-13T21:08:57.364Z,7.93
2023-04-13T21:14:00.482Z,7.89
2023-04-13T21:19:04.852Z,7.74
2023-04-13T21:24:08.193Z,7.62
2023-04-13T21:29:11.019Z,7.48
2023-04-13T21:34:15.421Z,7.40
2023-04-13T21:39:18.236Z,7.33
2023-04-13T21:44:28.813Z,7.27
2023-04-13T21:49:33.744Z,7.18
2023-04-13T21:54:36.590Z,7.06
2023-04-13T21:59:39.441Z,7.00
2023-04-13T22:04:43.561Z,7.02
2023-04-13T22:09:46.328Z,7.04
2023-04-13T22:14:49.199Z,7.04
2023-04-13T22:19:53.404Z,6.87
2023-04-13T22:24:56.149Z,6.79
2023-04-13T22:29:59.033Z,6.74
2023-04-13T22:35:03.272Z,6.68
2023-04-13T22:40:07.261Z,6.73
2023-04-13T22:45:11.024Z,6.69
2023-04-13T22:50:15.186Z,6.64
2023-04-13T22:55:18.095Z,6.55
2023-04-13T23:00:21.595Z,6.52
2023-04-13T23:05:25.826Z,6.43
2023-04-13T23:10:30.407Z,6.33
2023-04-13T23:15:33.275Z,6.35
2023-04-13T23:20:37.428Z,6.29
2023-04-13T23:25:40.468Z,6.25
2023-04-13T23:30:43.491Z,6.20
2023-04-13T23:35:53.756Z,6.12
2023-04-13T23:40:57.032Z,6.02
2023-04-13T23:46:00.002Z,6.02
2023-04-13T23:51:04.340Z,6.03
2023-04-13T23:56:07.625Z,5.96
